Aviation Digital Data Service (ADDS)

Output produced by METARs form (1237 UTC 31 March 2015)
found at http://aviationweather.gov/adds/metars/
 
KGSO 311140Z 3112/0112 22005KT P6SM FEW250 
     FM311430 21011G18KT P6SM SCT250 
     FM311800 23015G25KT P6SM FEW250 
     FM010100 28010KT P6SM SCT050 SCT250